sensor_id;sensor_type;location;lat;lon;timestamp;P1;durP1;ratioP1;P2;durP2;ratioP2
42110;SDS011;27766;52.174;5.456;2023-07-31T00:00:58;1.23;;;1.00;;
42110;SDS011;27766;52.174;5.456;2023-07-31T00:03:26;2.25;;;0.88;;
42110;SDS011;27766;52.174;5.456;2023-07-31T00:05:53;1.70;;;1.10;;
42110;SDS011;27766;52.174;5.456;2023-07-31T00:08:20;2.72;;;1.08;;
42110;SDS011;27766;52.174;5.456;2023-07-31T00:10:47;1.33;;;0.88;;
42110;SDS011;27766;52.174;5.456;2023-07-31T00:13:17;1.58;;;1.08;;
42110;SDS011;27766;52.174;5.456;2023-07-31T00:15:45;2.03;;;1.10;;
42110;SDS011;27766;52.174;5.456;2023-07-31T00:18:12;4.95;;;1.20;;
42110;SDS011;27766;52.174;5.456;2023-07-31T00:20:39;2.03;;;1.23;;
42110;SDS011;27766;52.174;5.456;2023-07-31T00:23:06;1.83;;;1.30;;
42110;SDS011;27766;52.174;5.456;2023-07-31T00:25:34;2.38;;;0.98;;
42110;SDS011;27766;52.174;5.456;2023-07-31T00:28:01;1.90;;;1.00;;
42110;SDS011;27766;52.174;5.456;2023-07-31T00:30:28;3.03;;;1.35;;
42110;SDS011;27766;52.174;5.456;2023-07-31T00:32:56;2.22;;;1.20;;
42110;SDS011;27766;52.174;5.456;2023-07-31T00:35:23;2.17;;;1.58;;
42110;SDS011;27766;52.174;5.456;2023-07-31T00:37:50;1.85;;;1.17;;
42110;SDS011;27766;52.174;5.456;2023-07-31T00:40:17;5.78;;;1.83;;
42110;SDS011;27766;52.174;5.456;2023-07-31T00:42:45;2.25;;;1.38;;
42110;SDS011;27766;52.174;5.456;2023-07-31T00:45:12;5.20;;;1.75;;
42110;SDS011;27766;52.174;5.456;2023-07-31T00:47:39;2.33;;;1.50;;
42110;SDS011;27766;52.174;5.456;2023-07-31T00:50:07;3.00;;;1.83;;
42110;SDS011;27766;52.174;5.456;2023-07-31T00:52:35;2.83;;;1.85;;
42110;SDS011;27766;52.174;5.456;2023-07-31T00:55:03;4.35;;;2.85;;
42110;SDS011;27766;52.174;5.456;2023-07-31T00:57:31;5.72;;;3.20;;
42110;SDS011;27766;52.174;5.456;2023-07-31T01:00:00;6.13;;;3.08;;
42110;SDS011;27766;52.174;5.456;2023-07-31T01:02:27;7.78;;;4.35;;
42110;SDS011;27766;52.174;5.456;2023-07-31T01:04:54;14.57;;;4.88;;
42110;SDS011;27766;52.174;5.456;2023-07-31T01:07:27;11.00;;;4.30;;
42110;SDS011;27766;52.174;5.456;2023-07-31T01:13:17;14.68;;;4.97;;
42110;SDS011;27766;52.174;5.456;2023-07-31T01:15:44;10.32;;;4.20;;
42110;SDS011;27766;52.174;5.456;2023-07-31T01:18:11;9.85;;;4.60;;
42110;SDS011;27766;52.174;5.456;2023-07-31T01:20:39;10.50;;;4.53;;
42110;SDS011;27766;52.174;5.456;2023-07-31T01:26:21;9.50;;;4.60;;
42110;SDS011;27766;52.174;5.456;2023-07-31T01:28:55;8.63;;;3.97;;
42110;SDS011;27766;52.174;5.456;2023-07-31T01:31:34;6.10;;;3.03;;
42110;SDS011;27766;52.174;5.456;2023-07-31T01:34:03;6.63;;;3.30;;
42110;SDS011;27766;52.174;5.456;2023-07-31T01:36:31;6.57;;;3.30;;
42110;SDS011;27766;52.174;5.456;2023-07-31T01:38:59;5.20;;;3.05;;
42110;SDS011;27766;52.174;5.456;2023-07-31T01:41:27;5.20;;;2.33;;
42110;SDS011;27766;52.174;5.456;2023-07-31T01:43:55;3.80;;;2.13;;
42110;SDS011;27766;52.174;5.456;2023-07-31T01:46:22;4.50;;;2.22;;
42110;SDS011;27766;52.174;5.456;2023-07-31T01:48:49;3.38;;;1.85;;
42110;SDS011;27766;52.174;5.456;2023-07-31T01:51:16;4.28;;;2.35;;
42110;SDS011;27766;52.174;5.456;2023-07-31T01:53:43;4.95;;;2.45;;
42110;SDS011;27766;52.174;5.456;2023-07-31T01:56:10;7.03;;;2.35;;
42110;SDS011;27766;52.174;5.456;2023-07-31T01:58:38;5.63;;;2.67;;
42110;SDS011;27766;52.174;5.456;2023-07-31T02:01:05;5.80;;;3.33;;
42110;SDS011;27766;52.174;5.456;2023-07-31T02:03:32;6.63;;;3.60;;
42110;SDS011;27766;52.174;5.456;2023-07-31T02:08:41;18.00;;;6.32;;
42110;SDS011;27766;52.174;5.456;2023-07-31T02:11:09;18.25;;;6.10;;
42110;SDS011;27766;52.174;5.456;2023-07-31T02:13:36;12.52;;;6.28;;
42110;SDS011;27766;52.174;5.456;2023-07-31T02:16:03;18.20;;;6.93;;
42110;SDS011;27766;52.174;5.456;2023-07-31T02:18:30;22.75;;;7.55;;
42110;SDS011;27766;52.174;5.456;2023-07-31T02:20:57;18.38;;;6.80;;
42110;SDS011;27766;52.174;5.456;2023-07-31T02:23:25;16.83;;;7.15;;
42110;SDS011;27766;52.174;5.456;2023-07-31T02:25:52;21.80;;;6.85;;
42110;SDS011;27766;52.174;5.456;2023-07-31T02:28:19;19.42;;;6.88;;
42110;SDS011;27766;52.174;5.456;2023-07-31T02:30:46;20.55;;;7.47;;
42110;SDS011;27766;52.174;5.456;2023-07-31T02:33:14;13.88;;;6.45;;
42110;SDS011;27766;52.174;5.456;2023-07-31T02:35:41;21.27;;;6.70;;
42110;SDS011;27766;52.174;5.456;2023-07-31T02:38:08;21.45;;;6.75;;
42110;SDS011;27766;52.174;5.456;2023-07-31T02:40:36;18.30;;;7.10;;
42110;SDS011;27766;52.174;5.456;2023-07-31T02:43:03;16.20;;;7.60;;
42110;SDS011;27766;52.174;5.456;2023-07-31T02:45:30;13.55;;;6.82;;
42110;SDS011;27766;52.174;5.456;2023-07-31T02:47:57;14.88;;;6.38;;
42110;SDS011;27766;52.174;5.456;2023-07-31T02:50:24;19.70;;;7.22;;
42110;SDS011;27766;52.174;5.456;2023-07-31T02:52:52;18.02;;;6.13;;
42110;SDS011;27766;52.174;5.456;2023-07-31T02:55:19;14.23;;;6.35;;
42110;SDS011;27766;52.174;5.456;2023-07-31T02:57:46;15.35;;;6.63;;
42110;SDS011;27766;52.174;5.456;2023-07-31T03:00:14;19.30;;;7.28;;
42110;SDS011;27766;52.174;5.456;2023-07-31T03:02:41;15.00;;;6.90;;
42110;SDS011;27766;52.174;5.456;2023-07-31T03:05:08;17.52;;;6.60;;
42110;SDS011;27766;52.174;5.456;2023-07-31T03:07:36;24.75;;;7.57;;
42110;SDS011;27766;52.174;5.456;2023-07-31T03:10:03;18.83;;;7.43;;
42110;SDS011;27766;52.174;5.456;2023-07-31T03:12:30;18.10;;;6.20;;
42110;SDS011;27766;52.174;5.456;2023-07-31T03:14:57;19.58;;;7.07;;
42110;SDS011;27766;52.174;5.456;2023-07-31T03:17:24;21.90;;;8.02;;
42110;SDS011;27766;52.174;5.456;2023-07-31T03:19:52;20.77;;;8.05;;
42110;SDS011;27766;52.174;5.456;2023-07-31T03:22:19;19.73;;;7.85;;
42110;SDS011;27766;52.174;5.456;2023-07-31T03:24:46;20.25;;;8.35;;
42110;SDS011;27766;52.174;5.456;2023-07-31T03:27:13;17.25;;;7.63;;
42110;SDS011;27766;52.174;5.456;2023-07-31T03:29:40;13.45;;;7.35;;
42110;SDS011;27766;52.174;5.456;2023-07-31T03:32:07;22.83;;;7.18;;
42110;SDS011;27766;52.174;5.456;2023-07-31T03:34:34;21.65;;;7.75;;
42110;SDS011;27766;52.174;5.456;2023-07-31T03:37:02;22.23;;;8.25;;
42110;SDS011;27766;52.174;5.456;2023-07-31T03:39:29;17.92;;;7.45;;
42110;SDS011;27766;52.174;5.456;2023-07-31T03:41:56;22.13;;;8.65;;
42110;SDS011;27766;52.174;5.456;2023-07-31T03:44:23;22.27;;;7.90;;
42110;SDS011;27766;52.174;5.456;2023-07-31T03:46:50;18.20;;;8.32;;
42110;SDS011;27766;52.174;5.456;2023-07-31T03:49:18;22.40;;;7.72;;
42110;SDS011;27766;52.174;5.456;2023-07-31T03:51:45;18.20;;;8.75;;
42110;SDS011;27766;52.174;5.456;2023-07-31T03:54:12;19.33;;;8.10;;
42110;SDS011;27766;52.174;5.456;2023-07-31T03:56:40;17.17;;;8.18;;
42110;SDS011;27766;52.174;5.456;2023-07-31T03:59:08;29.33;;;8.73;;
42110;SDS011;27766;52.174;5.456;2023-07-31T04:01:35;24.25;;;8.27;;
42110;SDS011;27766;52.174;5.456;2023-07-31T04:04:03;19.75;;;7.93;;
42110;SDS011;27766;52.174;5.456;2023-07-31T04:06:30;20.65;;;8.25;;
42110;SDS011;27766;52.174;5.456;2023-07-31T04:08:57;20.60;;;8.10;;
42110;SDS011;27766;52.174;5.456;2023-07-31T04:11:25;15.93;;;8.35;;
42110;SDS011;27766;52.174;5.456;2023-07-31T04:13:52;19.33;;;8.55;;
42110;SDS011;27766;52.174;5.456;2023-07-31T04:16:19;17.52;;;8.93;;
42110;SDS011;27766;52.174;5.456;2023-07-31T04:18:46;12.85;;;7.28;;
42110;SDS011;27766;52.174;5.456;2023-07-31T04:21:13;14.07;;;7.20;;
42110;SDS011;27766;52.174;5.456;2023-07-31T04:23:41;17.52;;;8.07;;
42110;SDS011;27766;52.174;5.456;2023-07-31T04:26:08;23.05;;;8.82;;
42110;SDS011;27766;52.174;5.456;2023-07-31T04:28:35;16.42;;;7.90;;
42110;SDS011;27766;52.174;5.456;2023-07-31T04:31:03;29.42;;;8.10;;
42110;SDS011;27766;52.174;5.456;2023-07-31T04:33:30;18.50;;;8.13;;
42110;SDS011;27766;52.174;5.456;2023-07-31T04:35:59;19.17;;;7.32;;
42110;SDS011;27766;52.174;5.456;2023-07-31T04:38:30;16.20;;;8.07;;
42110;SDS011;27766;52.174;5.456;2023-07-31T04:40:57;23.98;;;8.30;;
42110;SDS011;27766;52.174;5.456;2023-07-31T04:43:25;17.77;;;7.63;;
42110;SDS011;27766;52.174;5.456;2023-07-31T04:45:52;22.98;;;8.50;;
42110;SDS011;27766;52.174;5.456;2023-07-31T04:48:22;14.48;;;6.63;;
42110;SDS011;27766;52.174;5.456;2023-07-31T04:50:49;13.13;;;7.25;;
42110;SDS011;27766;52.174;5.456;2023-07-31T04:53:16;17.40;;;7.22;;
42110;SDS011;27766;52.174;5.456;2023-07-31T04:55:43;14.93;;;6.93;;
42110;SDS011;27766;52.174;5.456;2023-07-31T04:58:10;15.77;;;6.05;;
42110;SDS011;27766;52.174;5.456;2023-07-31T05:00:37;15.40;;;7.05;;
42110;SDS011;27766;52.174;5.456;2023-07-31T05:03:05;28.65;;;8.13;;
42110;SDS011;27766;52.174;5.456;2023-07-31T05:05:33;19.02;;;7.20;;
42110;SDS011;27766;52.174;5.456;2023-07-31T05:08:00;21.35;;;7.50;;
42110;SDS011;27766;52.174;5.456;2023-07-31T05:10:27;16.00;;;6.60;;
42110;SDS011;27766;52.174;5.456;2023-07-31T05:12:55;17.50;;;7.20;;
42110;SDS011;27766;52.174;5.456;2023-07-31T05:15:22;16.05;;;7.07;;
42110;SDS011;27766;52.174;5.456;2023-07-31T05:17:49;16.50;;;6.68;;
42110;SDS011;27766;52.174;5.456;2023-07-31T05:20:17;17.42;;;6.97;;
42110;SDS011;27766;52.174;5.456;2023-07-31T05:22:44;14.57;;;6.32;;
42110;SDS011;27766;52.174;5.456;2023-07-31T05:25:11;11.98;;;6.15;;
42110;SDS011;27766;52.174;5.456;2023-07-31T05:27:39;18.52;;;6.78;;
42110;SDS011;27766;52.174;5.456;2023-07-31T05:30:06;20.25;;;7.13;;
42110;SDS011;27766;52.174;5.456;2023-07-31T05:32:34;12.82;;;6.55;;
42110;SDS011;27766;52.174;5.456;2023-07-31T05:35:01;10.90;;;6.32;;
42110;SDS011;27766;52.174;5.456;2023-07-31T05:37:28;12.68;;;7.22;;
42110;SDS011;27766;52.174;5.456;2023-07-31T05:39:56;14.00;;;6.90;;
42110;SDS011;27766;52.174;5.456;2023-07-31T05:42:23;17.20;;;6.10;;
42110;SDS011;27766;52.174;5.456;2023-07-31T05:44:50;7.90;;;4.95;;
42110;SDS011;27766;52.174;5.456;2023-07-31T05:47:17;9.60;;;4.68;;
42110;SDS011;27766;52.174;5.456;2023-07-31T05:49:45;8.00;;;3.85;;
42110;SDS011;27766;52.174;5.456;2023-07-31T05:52:13;7.00;;;4.35;;
42110;SDS011;27766;52.174;5.456;2023-07-31T05:54:40;6.68;;;4.35;;
42110;SDS011;27766;52.174;5.456;2023-07-31T05:57:07;9.48;;;3.78;;
42110;SDS011;27766;52.174;5.456;2023-07-31T05:59:34;7.82;;;3.95;;
42110;SDS011;27766;52.174;5.456;2023-07-31T06:02:01;5.10;;;3.42;;
42110;SDS011;27766;52.174;5.456;2023-07-31T06:04:28;8.35;;;4.47;;
42110;SDS011;27766;52.174;5.456;2023-07-31T06:06:56;8.07;;;4.40;;
42110;SDS011;27766;52.174;5.456;2023-07-31T06:09:23;8.60;;;4.60;;
42110;SDS011;27766;52.174;5.456;2023-07-31T06:11:51;8.93;;;5.28;;
42110;SDS011;27766;52.174;5.456;2023-07-31T06:14:18;9.10;;;4.80;;
42110;SDS011;27766;52.174;5.456;2023-07-31T06:16:46;7.13;;;4.57;;
42110;SDS011;27766;52.174;5.456;2023-07-31T06:19:13;7.80;;;4.85;;
42110;SDS011;27766;52.174;5.456;2023-07-31T06:21:40;13.07;;;5.97;;
42110;SDS011;27766;52.174;5.456;2023-07-31T06:24:09;10.65;;;6.05;;
42110;SDS011;27766;52.174;5.456;2023-07-31T06:26:36;10.20;;;5.72;;
42110;SDS011;27766;52.174;5.456;2023-07-31T06:29:04;10.95;;;5.05;;
42110;SDS011;27766;52.174;5.456;2023-07-31T06:31:31;8.65;;;4.88;;
42110;SDS011;27766;52.174;5.456;2023-07-31T06:33:58;5.88;;;4.50;;
42110;SDS011;27766;52.174;5.456;2023-07-31T06:36:26;8.57;;;4.85;;
42110;SDS011;27766;52.174;5.456;2023-07-31T06:38:53;8.80;;;4.32;;
42110;SDS011;27766;52.174;5.456;2023-07-31T06:41:21;11.95;;;4.78;;
42110;SDS011;27766;52.174;5.456;2023-07-31T06:43:48;10.95;;;5.72;;
42110;SDS011;27766;52.174;5.456;2023-07-31T06:46:16;11.70;;;4.13;;
42110;SDS011;27766;52.174;5.456;2023-07-31T06:48:43;6.68;;;4.68;;
42110;SDS011;27766;52.174;5.456;2023-07-31T06:51:10;7.10;;;3.60;;
42110;SDS011;27766;52.174;5.456;2023-07-31T06:53:38;6.13;;;3.53;;
42110;SDS011;27766;52.174;5.456;2023-07-31T06:56:05;5.72;;;4.05;;
42110;SDS011;27766;52.174;5.456;2023-07-31T06:58:32;5.20;;;3.85;;
42110;SDS011;27766;52.174;5.456;2023-07-31T07:01:00;4.38;;;3.40;;
42110;SDS011;27766;52.174;5.456;2023-07-31T07:03:28;5.78;;;4.00;;
42110;SDS011;27766;52.174;5.456;2023-07-31T07:05:55;7.03;;;3.75;;
42110;SDS011;27766;52.174;5.456;2023-07-31T07:08:22;6.30;;;3.47;;
42110;SDS011;27766;52.174;5.456;2023-07-31T07:10:52;8.32;;;3.60;;
42110;SDS011;27766;52.174;5.456;2023-07-31T07:13:21;4.40;;;3.50;;
42110;SDS011;27766;52.174;5.456;2023-07-31T07:15:49;8.38;;;3.90;;
42110;SDS011;27766;52.174;5.456;2023-07-31T07:18:16;8.90;;;4.32;;
42110;SDS011;27766;52.174;5.456;2023-07-31T07:20:48;7.45;;;4.07;;
42110;SDS011;27766;52.174;5.456;2023-07-31T07:23:17;7.88;;;4.60;;
42110;SDS011;27766;52.174;5.456;2023-07-31T07:25:45;5.35;;;3.85;;
42110;SDS011;27766;52.174;5.456;2023-07-31T07:28:13;5.15;;;3.80;;
42110;SDS011;27766;52.174;5.456;2023-07-31T07:30:41;5.95;;;4.15;;
42110;SDS011;27766;52.174;5.456;2023-07-31T07:33:08;5.70;;;4.13;;
42110;SDS011;27766;52.174;5.456;2023-07-31T07:35:36;7.70;;;4.53;;
42110;SDS011;27766;52.174;5.456;2023-07-31T07:38:03;5.75;;;3.97;;
42110;SDS011;27766;52.174;5.456;2023-07-31T07:40:30;6.40;;;3.78;;
42110;SDS011;27766;52.174;5.456;2023-07-31T07:42:57;5.53;;;3.58;;
42110;SDS011;27766;52.174;5.456;2023-07-31T07:45:27;6.63;;;3.47;;
42110;SDS011;27766;52.174;5.456;2023-07-31T07:47:54;5.85;;;3.65;;
42110;SDS011;27766;52.174;5.456;2023-07-31T07:50:22;8.82;;;4.03;;
42110;SDS011;27766;52.174;5.456;2023-07-31T07:52:49;4.95;;;3.47;;
42110;SDS011;27766;52.174;5.456;2023-07-31T07:55:16;7.85;;;2.83;;
42110;SDS011;27766;52.174;5.456;2023-07-31T07:57:43;4.32;;;3.67;;
42110;SDS011;27766;52.174;5.456;2023-07-31T08:00:13;4.95;;;3.58;;
42110;SDS011;27766;52.174;5.456;2023-07-31T08:02:40;4.50;;;3.53;;
42110;SDS011;27766;52.174;5.456;2023-07-31T08:05:08;5.22;;;3.20;;
42110;SDS011;27766;52.174;5.456;2023-07-31T08:07:35;7.53;;;3.35;;
42110;SDS011;27766;52.174;5.456;2023-07-31T08:10:02;4.68;;;3.28;;
42110;SDS011;27766;52.174;5.456;2023-07-31T08:12:30;3.55;;;3.10;;
42110;SDS011;27766;52.174;5.456;2023-07-31T08:14:57;4.72;;;2.63;;
42110;SDS011;27766;52.174;5.456;2023-07-31T08:17:27;3.60;;;2.75;;
42110;SDS011;27766;52.174;5.456;2023-07-31T08:19:55;3.05;;;2.42;;
42110;SDS011;27766;52.174;5.456;2023-07-31T08:22:25;3.95;;;2.42;;
42110;SDS011;27766;52.174;5.456;2023-07-31T08:24:52;3.22;;;2.42;;
42110;SDS011;27766;52.174;5.456;2023-07-31T08:27:19;3.13;;;2.35;;
42110;SDS011;27766;52.174;5.456;2023-07-31T08:29:47;4.93;;;2.10;;
42110;SDS011;27766;52.174;5.456;2023-07-31T08:32:14;5.60;;;2.00;;
42110;SDS011;27766;52.174;5.456;2023-07-31T08:34:42;4.80;;;2.40;;
42110;SDS011;27766;52.174;5.456;2023-07-31T08:37:09;2.90;;;1.50;;
42110;SDS011;27766;52.174;5.456;2023-07-31T08:39:37;7.07;;;2.33;;
42110;SDS011;27766;52.174;5.456;2023-07-31T08:42:09;1.70;;;1.50;;
42110;SDS011;27766;52.174;5.456;2023-07-31T08:44:36;2.30;;;2.10;;
42110;SDS011;27766;52.174;5.456;2023-07-31T08:47:05;3.40;;;1.98;;
42110;SDS011;27766;52.174;5.456;2023-07-31T08:49:33;4.75;;;1.70;;
42110;SDS011;27766;52.174;5.456;2023-07-31T08:52:01;2.38;;;1.80;;
42110;SDS011;27766;52.174;5.456;2023-07-31T08:54:29;2.20;;;1.70;;
42110;SDS011;27766;52.174;5.456;2023-07-31T08:56:58;2.45;;;1.70;;
42110;SDS011;27766;52.174;5.456;2023-07-31T08:59:28;2.35;;;1.33;;
42110;SDS011;27766;52.174;5.456;2023-07-31T09:01:58;1.42;;;1.17;;
42110;SDS011;27766;52.174;5.456;2023-07-31T09:04:32;2.38;;;1.25;;
42110;SDS011;27766;52.174;5.456;2023-07-31T09:07:02;2.78;;;1.40;;
42110;SDS011;27766;52.174;5.456;2023-07-31T09:09:31;1.95;;;1.20;;
42110;SDS011;27766;52.174;5.456;2023-07-31T09:11:59;1.58;;;1.30;;
42110;SDS011;27766;52.174;5.456;2023-07-31T09:14:26;7.30;;;1.63;;
42110;SDS011;27766;52.174;5.456;2023-07-31T09:16:54;2.15;;;1.42;;
42110;SDS011;27766;52.174;5.456;2023-07-31T09:19:26;1.60;;;1.45;;
42110;SDS011;27766;52.174;5.456;2023-07-31T09:22:00;1.80;;;1.50;;
42110;SDS011;27766;52.174;5.456;2023-07-31T09:24:31;1.60;;;1.38;;
42110;SDS011;27766;52.174;5.456;2023-07-31T09:27:02;1.50;;;1.40;;
42110;SDS011;27766;52.174;5.456;2023-07-31T09:29:30;1.30;;;1.20;;
42110;SDS011;27766;52.174;5.456;2023-07-31T09:31:57;6.30;;;1.63;;
42110;SDS011;27766;52.174;5.456;2023-07-31T09:34:30;3.13;;;1.75;;
42110;SDS011;27766;52.174;5.456;2023-07-31T09:37:07;1.60;;;1.42;;
42110;SDS011;27766;52.174;5.456;2023-07-31T09:39:45;2.90;;;2.08;;
42110;SDS011;27766;52.174;5.456;2023-07-31T09:42:13;2.30;;;1.67;;
42110;SDS011;27766;52.174;5.456;2023-07-31T09:44:41;4.47;;;2.08;;
42110;SDS011;27766;52.174;5.456;2023-07-31T09:47:24;3.60;;;2.15;;
42110;SDS011;27766;52.174;5.456;2023-07-31T09:49:52;4.10;;;1.60;;
42110;SDS011;27766;52.174;5.456;2023-07-31T09:52:19;1.83;;;1.30;;
42110;SDS011;27766;52.174;5.456;2023-07-31T09:54:47;3.58;;;1.95;;
42110;SDS011;27766;52.174;5.456;2023-07-31T09:57:14;2.55;;;1.60;;
42110;SDS011;27766;52.174;5.456;2023-07-31T09:59:45;2.72;;;2.00;;
42110;SDS011;27766;52.174;5.456;2023-07-31T10:02:15;3.60;;;2.70;;
42110;SDS011;27766;52.174;5.456;2023-07-31T10:04:49;2.17;;;1.83;;
42110;SDS011;27766;52.174;5.456;2023-07-31T10:07:17;2.65;;;2.05;;
42110;SDS011;27766;52.174;5.456;2023-07-31T10:09:46;3.17;;;1.90;;
42110;SDS011;27766;52.174;5.456;2023-07-31T10:12:14;4.75;;;2.20;;
42110;SDS011;27766;52.174;5.456;2023-07-31T10:14:46;1.73;;;1.50;;
42110;SDS011;27766;52.174;5.456;2023-07-31T10:17:13;2.58;;;1.83;;
42110;SDS011;27766;52.174;5.456;2023-07-31T10:19:41;3.25;;;2.10;;
42110;SDS011;27766;52.174;5.456;2023-07-31T10:22:10;2.38;;;2.00;;
42110;SDS011;27766;52.174;5.456;2023-07-31T10:24:39;4.68;;;2.10;;
42110;SDS011;27766;52.174;5.456;2023-07-31T10:27:07;3.22;;;2.47;;
42110;SDS011;27766;52.174;5.456;2023-07-31T10:29:37;2.90;;;2.60;;
42110;SDS011;27766;52.174;5.456;2023-07-31T10:32:06;3.22;;;2.90;;
42110;SDS011;27766;52.174;5.456;2023-07-31T10:34:38;4.15;;;3.45;;
42110;SDS011;27766;52.174;5.456;2023-07-31T10:37:23;4.88;;;3.22;;
42110;SDS011;27766;52.174;5.456;2023-07-31T10:40:02;6.68;;;3.72;;
42110;SDS011;27766;52.174;5.456;2023-07-31T10:42:33;5.32;;;3.70;;
42110;SDS011;27766;52.174;5.456;2023-07-31T10:45:04;6.50;;;4.10;;
42110;SDS011;27766;52.174;5.456;2023-07-31T10:47:36;8.30;;;4.30;;
42110;SDS011;27766;52.174;5.456;2023-07-31T10:52:47;7.20;;;4.00;;
42110;SDS011;27766;52.174;5.456;2023-07-31T10:58:05;6.50;;;4.10;;
42110;SDS011;27766;52.174;5.456;2023-07-31T11:00:36;8.05;;;4.43;;
42110;SDS011;27766;52.174;5.456;2023-07-31T11:03:08;6.13;;;4.50;;
42110;SDS011;27766;52.174;5.456;2023-07-31T11:08:24;7.93;;;4.20;;
42110;SDS011;27766;52.174;5.456;2023-07-31T11:13:29;6.10;;;4.32;;
42110;SDS011;27766;52.174;5.456;2023-07-31T11:15:57;5.07;;;3.97;;
42110;SDS011;27766;52.174;5.456;2023-07-31T11:18:27;6.85;;;4.03;;
42110;SDS011;27766;52.174;5.456;2023-07-31T11:20:55;5.05;;;3.35;;
42110;SDS011;27766;52.174;5.456;2023-07-31T11:23:22;4.32;;;2.90;;
42110;SDS011;27766;52.174;5.456;2023-07-31T11:25:50;6.93;;;2.85;;
42110;SDS011;27766;52.174;5.456;2023-07-31T11:28:18;3.60;;;2.92;;
42110;SDS011;27766;52.174;5.456;2023-07-31T11:30:48;3.28;;;2.70;;
42110;SDS011;27766;52.174;5.456;2023-07-31T11:33:16;4.03;;;2.45;;
42110;SDS011;27766;52.174;5.456;2023-07-31T11:35:44;3.30;;;2.10;;
42110;SDS011;27766;52.174;5.456;2023-07-31T11:38:31;2.75;;;2.15;;
42110;SDS011;27766;52.174;5.456;2023-07-31T11:41:01;3.10;;;2.20;;
42110;SDS011;27766;52.174;5.456;2023-07-31T11:43:32;3.50;;;2.47;;
42110;SDS011;27766;52.174;5.456;2023-07-31T11:46:01;3.13;;;2.00;;
42110;SDS011;27766;52.174;5.456;2023-07-31T11:48:31;3.10;;;1.90;;
42110;SDS011;27766;52.174;5.456;2023-07-31T11:51:06;2.75;;;1.85;;
42110;SDS011;27766;52.174;5.456;2023-07-31T11:53:56;2.67;;;1.90;;
42110;SDS011;27766;52.174;5.456;2023-07-31T11:56:26;2.42;;;2.03;;
42110;SDS011;27766;52.174;5.456;2023-07-31T11:58:57;3.97;;;2.13;;
42110;SDS011;27766;52.174;5.456;2023-07-31T12:01:27;3.10;;;2.55;;
42110;SDS011;27766;52.174;5.456;2023-07-31T12:03:55;5.93;;;2.85;;
42110;SDS011;27766;52.174;5.456;2023-07-31T12:06:32;3.80;;;3.25;;
42110;SDS011;27766;52.174;5.456;2023-07-31T12:09:03;2.83;;;2.38;;
42110;SDS011;27766;52.174;5.456;2023-07-31T12:11:31;3.20;;;2.88;;
42110;SDS011;27766;52.174;5.456;2023-07-31T12:13:58;4.13;;;3.03;;
42110;SDS011;27766;52.174;5.456;2023-07-31T12:16:27;4.40;;;3.10;;
42110;SDS011;27766;52.174;5.456;2023-07-31T12:18:56;3.65;;;3.08;;
42110;SDS011;27766;52.174;5.456;2023-07-31T12:21:23;4.75;;;3.33;;
42110;SDS011;27766;52.174;5.456;2023-07-31T12:23:53;4.20;;;3.55;;
42110;SDS011;27766;52.174;5.456;2023-07-31T12:26:22;5.43;;;3.67;;
42110;SDS011;27766;52.174;5.456;2023-07-31T12:28:50;5.85;;;3.63;;
42110;SDS011;27766;52.174;5.456;2023-07-31T12:31:18;3.65;;;3.10;;
42110;SDS011;27766;52.174;5.456;2023-07-31T12:33:48;3.30;;;2.80;;
42110;SDS011;27766;52.174;5.456;2023-07-31T12:36:18;4.65;;;2.70;;
42110;SDS011;27766;52.174;5.456;2023-07-31T12:38:50;3.40;;;2.70;;
42110;SDS011;27766;52.174;5.456;2023-07-31T12:41:18;2.88;;;2.63;;
42110;SDS011;27766;52.174;5.456;2023-07-31T12:43:46;4.65;;;3.05;;
42110;SDS011;27766;52.174;5.456;2023-07-31T12:46:13;4.00;;;2.78;;
42110;SDS011;27766;52.174;5.456;2023-07-31T12:48:41;2.65;;;2.28;;
42110;SDS011;27766;52.174;5.456;2023-07-31T12:51:09;3.03;;;2.53;;
42110;SDS011;27766;52.174;5.456;2023-07-31T12:53:36;3.13;;;2.58;;
42110;SDS011;27766;52.174;5.456;2023-07-31T12:56:03;3.22;;;2.72;;
42110;SDS011;27766;52.174;5.456;2023-07-31T12:58:31;3.95;;;3.03;;
42110;SDS011;27766;52.174;5.456;2023-07-31T13:00:58;4.15;;;3.10;;
42110;SDS011;27766;52.174;5.456;2023-07-31T13:03:26;2.65;;;2.45;;
42110;SDS011;27766;52.174;5.456;2023-07-31T13:05:54;4.20;;;3.30;;
42110;SDS011;27766;52.174;5.456;2023-07-31T13:08:21;3.25;;;2.95;;
42110;SDS011;27766;52.174;5.456;2023-07-31T13:10:49;3.85;;;2.70;;
42110;SDS011;27766;52.174;5.456;2023-07-31T13:13:16;4.93;;;2.97;;
42110;SDS011;27766;52.174;5.456;2023-07-31T13:15:43;3.00;;;2.70;;
42110;SDS011;27766;52.174;5.456;2023-07-31T13:18:12;4.60;;;3.53;;
42110;SDS011;27766;52.174;5.456;2023-07-31T13:20:39;3.97;;;3.05;;
42110;SDS011;27766;52.174;5.456;2023-07-31T13:23:06;5.40;;;3.13;;
42110;SDS011;27766;52.174;5.456;2023-07-31T13:25:33;3.33;;;3.03;;
42110;SDS011;27766;52.174;5.456;2023-07-31T13:28:01;3.05;;;2.75;;
42110;SDS011;27766;52.174;5.456;2023-07-31T13:30:29;3.35;;;2.80;;
42110;SDS011;27766;52.174;5.456;2023-07-31T13:32:57;3.72;;;2.92;;
42110;SDS011;27766;52.174;5.456;2023-07-31T13:35:24;6.25;;;3.42;;
42110;SDS011;27766;52.174;5.456;2023-07-31T13:37:51;4.88;;;3.65;;
42110;SDS011;27766;52.174;5.456;2023-07-31T13:40:19;3.92;;;3.28;;
42110;SDS011;27766;52.174;5.456;2023-07-31T13:42:46;3.78;;;3.22;;
42110;SDS011;27766;52.174;5.456;2023-07-31T13:45:15;3.53;;;2.58;;
42110;SDS011;27766;52.174;5.456;2023-07-31T13:47:42;4.03;;;2.97;;
42110;SDS011;27766;52.174;5.456;2023-07-31T13:50:10;3.10;;;2.50;;
42110;SDS011;27766;52.174;5.456;2023-07-31T13:52:37;2.88;;;2.25;;
42110;SDS011;27766;52.174;5.456;2023-07-31T13:55:04;3.42;;;2.45;;
42110;SDS011;27766;52.174;5.456;2023-07-31T13:57:32;2.83;;;2.20;;
42110;SDS011;27766;52.174;5.456;2023-07-31T14:00:00;2.70;;;1.65;;
42110;SDS011;27766;52.174;5.456;2023-07-31T14:02:28;2.40;;;1.45;;
42110;SDS011;27766;52.174;5.456;2023-07-31T14:04:55;2.33;;;1.55;;
42110;SDS011;27766;52.174;5.456;2023-07-31T14:07:22;2.53;;;1.38;;
42110;SDS011;27766;52.174;5.456;2023-07-31T14:09:49;2.05;;;1.42;;
42110;SDS011;27766;52.174;5.456;2023-07-31T14:12:16;2.40;;;1.15;;
42110;SDS011;27766;52.174;5.456;2023-07-31T14:15:03;1.50;;;1.30;;
42110;SDS011;27766;52.174;5.456;2023-07-31T14:17:31;1.23;;;0.70;;
42110;SDS011;27766;52.174;5.456;2023-07-31T14:19:58;2.50;;;1.27;;
42110;SDS011;27766;52.174;5.456;2023-07-31T14:22:27;1.83;;;1.17;;
42110;SDS011;27766;52.174;5.456;2023-07-31T14:24:56;2.45;;;1.65;;
42110;SDS011;27766;52.174;5.456;2023-07-31T14:27:24;3.65;;;2.20;;
42110;SDS011;27766;52.174;5.456;2023-07-31T14:29:51;3.60;;;2.42;;
42110;SDS011;27766;52.174;5.456;2023-07-31T14:32:18;3.28;;;2.70;;
42110;SDS011;27766;52.174;5.456;2023-07-31T14:34:46;5.05;;;3.38;;
42110;SDS011;27766;52.174;5.456;2023-07-31T14:37:13;5.07;;;4.05;;
42110;SDS011;27766;52.174;5.456;2023-07-31T14:39:40;6.03;;;4.50;;
42110;SDS011;27766;52.174;5.456;2023-07-31T14:42:07;5.85;;;5.00;;
42110;SDS011;27766;52.174;5.456;2023-07-31T14:44:34;6.35;;;4.40;;
42110;SDS011;27766;52.174;5.456;2023-07-31T14:47:02;7.30;;;5.32;;
42110;SDS011;27766;52.174;5.456;2023-07-31T14:49:29;11.52;;;5.93;;
42110;SDS011;27766;52.174;5.456;2023-07-31T14:51:57;7.45;;;6.10;;
42110;SDS011;27766;52.174;5.456;2023-07-31T14:54:24;7.63;;;6.53;;
42110;SDS011;27766;52.174;5.456;2023-07-31T14:56:51;7.70;;;6.60;;
42110;SDS011;27766;52.174;5.456;2023-07-31T14:59:18;6.75;;;5.72;;
42110;SDS011;27766;52.174;5.456;2023-07-31T15:01:46;6.90;;;5.43;;
42110;SDS011;27766;52.174;5.456;2023-07-31T15:04:13;6.82;;;5.18;;
42110;SDS011;27766;52.174;5.456;2023-07-31T15:06:40;9.15;;;5.38;;
42110;SDS011;27766;52.174;5.456;2023-07-31T15:09:08;6.65;;;4.65;;